Time;durP1;ratioP1;P1;durP2;ratioP2;P2;SDS_P1;SDS_P2;PMS_P1;PMS_P2;Temp;Humidity;BMP_temperature;BMP_pressure;BME280_temperature;BME280_humidity;BME280_pressure;Samples;Min_cycle;Max_cycle;Signal;HPM_P1;HPM_P2
2023/06/11 00:02:04;;;;;;;2.23;2.23;;;23.60;67.10;;;;;;5110167;28;43655;-68
2023/06/11 00:04:34;;;;;;;1.90;1.90;;;23.60;67.00;;;;;;5109833;27;43516;-69
2023/06/11 00:07:05;;;;;;;2.10;2.10;;;23.60;67.10;;;;;;5110428;28;43434;-69
2023/06/11 00:09:34;;;;;;;1.90;1.90;;;23.60;67.20;;;;;;5107126;27;43624;-69
2023/06/11 00:12:02;;;;;;;2.37;2.27;;;23.50;67.90;;;;;;5109684;27;43602;-69
2023/06/11 00:14:30;;;;;;;2.03;2.03;;;23.60;67.20;;;;;;5110498;27;43343;-69
2023/06/11 00:16:58;;;;;;;2.23;2.23;;;23.70;67.00;;;;;;5109871;27;43393;-69
2023/06/11 00:19:28;;;;;;;2.10;2.10;;;23.80;66.60;;;;;;5109517;28;43398;-69
2023/06/11 00:21:58;;;;;;;2.20;2.20;;;23.90;66.20;;;;;;5109313;27;43843;-69
2023/06/11 00:24:26;;;;;;;2.10;2.00;;;24.00;66.00;;;;;;5108873;28;43929;-69
2023/06/11 00:26:56;;;;;;;1.90;1.90;;;24.00;65.90;;;;;;5110083;27;43355;-69
2023/06/11 00:29:24;;;;;;;2.00;2.00;;;23.90;65.90;;;;;;5109779;27;43379;-69
2023/06/11 00:31:55;;;;;;;2.00;2.00;;;23.80;66.20;;;;;;5109677;27;43618;-69
2023/06/11 00:34:23;;;;;;;1.90;1.90;;;23.80;66.30;;;;;;5108561;27;44297;-68
2023/06/11 00:36:52;;;;;;;2.20;2.20;;;23.80;66.30;;;;;;5108690;27;43426;-68
2023/06/11 00:39:20;;;;;;;2.00;2.00;;;23.80;66.60;;;;;;5107898;27;43424;-68
2023/06/11 00:41:49;;;;;;;2.40;2.40;;;23.70;66.80;;;;;;5105594;27;43886;-68
2023/06/11 00:44:21;;;;;;;2.20;2.20;;;23.70;66.80;;;;;;5108285;28;44726;-68
2023/06/11 00:46:51;;;;;;;2.07;2.07;;;23.70;66.80;;;;;;5108684;28;43426;-68
2023/06/11 00:49:19;;;;;;;1.90;1.90;;;23.70;66.90;;;;;;5109068;27;43662;-68
2023/06/11 00:51:47;;;;;;;2.37;2.37;;;23.60;66.90;;;;;;5107618;27;45626;-68
2023/06/11 00:54:17;;;;;;;2.20;2.20;;;23.60;67.10;;;;;;5109837;27;43672;-68
2023/06/11 00:56:45;;;;;;;2.00;2.00;;;23.60;67.00;;;;;;5105094;27;43412;-68
2023/06/11 00:59:13;;;;;;;2.20;2.20;;;23.70;66.80;;;;;;5109229;27;43466;-68
2023/06/11 01:01:46;;;;;;;2.20;2.20;;;23.80;66.40;;;;;;5093633;28;43896;-67
2023/06/11 01:04:17;;;;;;;2.10;2.10;;;23.90;66.20;;;;;;5084161;28;43516;-67
2023/06/11 01:06:49;;;;;;;2.20;2.20;;;23.90;66.00;;;;;;5088135;28;43387;-68
2023/06/11 01:09:20;;;;;;;2.20;2.20;;;23.90;66.10;;;;;;5086849;27;44193;-67
2023/06/11 01:11:49;;;;;;;2.20;2.20;;;23.80;66.30;;;;;;5088475;27;44881;-67
2023/06/11 01:14:19;;;;;;;2.33;2.33;;;23.80;66.50;;;;;;5087766;28;43359;-68
2023/06/11 01:16:52;;;;;;;2.37;2.37;;;23.70;66.40;;;;;;5086898;28;43458;-68
2023/06/11 01:19:37;;;;;;;2.10;2.10;;;23.70;66.70;;;;;;5087591;28;43684;-67
2023/06/11 01:22:13;;;;;;;2.30;2.30;;;23.70;66.90;;;;;;5084998;28;43985;-67
2023/06/11 01:24:53;;;;;;;2.10;2.10;;;23.60;66.90;;;;;;5086974;28;43469;-67
2023/06/11 01:27:23;;;;;;;2.17;2.17;;;23.60;66.90;;;;;;5089556;27;43992;-67
2023/06/11 01:29:54;;;;;;;1.93;1.93;;;23.60;66.90;;;;;;5086800;28;43507;-67
2023/06/11 01:32:25;;;;;;;1.83;1.83;;;23.60;66.90;;;;;;5092778;27;44979;-67
2023/06/11 01:35:01;;;;;;;1.97;1.97;;;23.60;67.20;;;;;;5087182;28;43894;-68
2023/06/11 01:37:33;;;;;;;2.40;2.40;;;23.60;67.10;;;;;;5088129;27;43456;-67
2023/06/11 01:40:02;;;;;;;2.10;2.10;;;23.70;67.00;;;;;;5087631;28;43494;-67
2023/06/11 01:42:39;;;;;;;2.00;2.00;;;23.80;66.50;;;;;;5089505;27;43871;-67
2023/06/11 01:45:10;;;;;;;2.00;2.00;;;23.90;66.20;;;;;;5084613;27;43454;-68
2023/06/11 01:47:40;;;;;;;2.13;2.13;;;24.00;66.00;;;;;;5086723;27;44401;-67
2023/06/11 01:50:09;;;;;;;2.00;2.00;;;23.90;65.90;;;;;;5086883;27;43616;-67
2023/06/11 01:52:38;;;;;;;2.10;2.10;;;23.90;66.00;;;;;;5085566;27;43700;-67
2023/06/11 01:55:07;;;;;;;2.20;2.20;;;23.80;66.30;;;;;;5087974;28;43743;-68
2023/06/11 01:57:35;;;;;;;2.13;2.13;;;23.80;66.40;;;;;;5086790;28;43891;-68
2023/06/11 02:00:05;;;;;;;2.20;2.20;;;23.80;66.40;;;;;;5087373;28;43385;-67
2023/06/11 02:02:45;;;;;;;2.00;2.00;;;23.80;66.60;;;;;;5084715;28;43610;-67
2023/06/11 02:05:14;;;;;;;2.20;2.20;;;23.70;66.80;;;;;;5085914;28;44796;-67
2023/06/11 02:07:42;;;;;;;2.10;2.10;;;23.70;66.90;;;;;;5087579;27;43406;-67
2023/06/11 02:10:11;;;;;;;2.17;2.17;;;23.70;66.80;;;;;;5086450;27;43964;-67
2023/06/11 02:12:39;;;;;;;2.10;2.10;;;23.60;66.80;;;;;;5085312;27;43662;-67
2023/06/11 02:15:08;;;;;;;1.90;1.90;;;23.60;67.10;;;;;;5086983;27;43355;-67
2023/06/11 02:17:36;;;;;;;1.90;1.90;;;23.60;67.10;;;;;;5086851;28;43453;-67
2023/06/11 02:20:08;;;;;;;2.20;2.20;;;23.60;67.00;;;;;;5086801;28;43508;-68
2023/06/11 02:22:36;;;;;;;2.20;2.20;;;23.70;66.70;;;;;;5083278;28;46889;-68
2023/06/11 02:25:05;;;;;;;2.20;2.20;;;23.90;66.30;;;;;;5085944;27;43473;-67
2023/06/11 02:27:33;;;;;;;2.20;2.20;;;23.90;66.00;;;;;;5087811;27;44063;-67
2023/06/11 02:30:03;;;;;;;2.00;2.00;;;23.90;65.90;;;;;;5086600;28;43580;-67
2023/06/11 02:32:31;;;;;;;2.20;2.20;;;23.90;66.00;;;;;;5087284;27;43846;-67
2023/06/11 02:34:59;;;;;;;2.30;2.30;;;23.80;66.40;;;;;;5086723;27;43390;-67
2023/06/11 02:37:29;;;;;;;1.90;1.90;;;23.70;66.40;;;;;;5086427;27;44173;-67
2023/06/11 02:39:57;;;;;;;1.90;1.90;;;23.70;66.40;;;;;;5087498;28;43891;-66
2023/06/11 02:42:25;;;;;;;2.07;2.07;;;23.70;67.30;;;;;;5085424;28;44973;-66
2023/06/11 02:44:53;;;;;;;1.93;1.93;;;23.70;66.90;;;;;;5087193;27;43395;-66
2023/06/11 02:47:21;;;;;;;2.10;2.10;;;23.60;66.80;;;;;;5085866;28;43343;-67
2023/06/11 02:49:49;;;;;;;2.27;2.27;;;23.60;66.70;;;;;;5085446;28;43959;-66
2023/06/11 02:52:17;;;;;;;2.10;2.10;;;23.60;66.90;;;;;;5086449;27;43931;-67
2023/06/11 02:54:46;;;;;;;2.00;2.00;;;23.60;67.10;;;;;;5085173;28;43549;-67
2023/06/11 02:57:15;;;;;;;2.37;2.37;;;23.60;67.20;;;;;;5085614;27;43445;-68
2023/06/11 02:59:42;;;;;;;2.10;2.10;;;23.60;67.10;;;;;;5087700;27;43374;-68
2023/06/11 03:02:10;;;;;;;2.23;2.23;;;23.70;66.90;;;;;;5080972;28;44715;-67
2023/06/11 03:04:38;;;;;;;2.20;2.20;;;23.80;66.40;;;;;;5086577;27;43404;-67
2023/06/11 03:07:07;;;;;;;2.27;2.17;;;23.90;66.20;;;;;;5087354;27;43470;-67
2023/06/11 03:09:35;;;;;;;1.93;1.93;;;23.90;66.00;;;;;;5084399;28;44315;-67
2023/06/11 03:12:06;;;;;;;2.10;2.10;;;23.90;66.10;;;;;;5085932;28;46041;-67
2023/06/11 03:14:35;;;;;;;2.60;2.50;;;23.80;66.30;;;;;;5070490;28;43962;-68
2023/06/11 03:17:03;;;;;;;2.17;2.17;;;23.70;66.40;;;;;;5085212;28;44057;-67
2023/06/11 03:19:31;;;;;;;2.40;2.40;;;23.70;66.40;;;;;;5086038;28;43605;-67
2023/06/11 03:22:00;;;;;;;2.27;2.27;;;23.70;66.50;;;;;;5085222;28;44074;-69
2023/06/11 03:24:28;;;;;;;2.30;2.30;;;23.60;66.70;;;;;;5084492;27;43478;-66
2023/06/11 03:27:08;;;;;;;2.10;2.10;;;23.60;66.90;;;;;;5084712;27;43497;-67
2023/06/11 03:29:37;;;;;;;2.20;2.20;;;23.60;66.70;;;;;;5081317;27;44036;-68
2023/06/11 03:32:06;;;;;;;2.30;2.30;;;23.60;66.80;;;;;;5084740;28;45397;-67
2023/06/11 03:34:35;;;;;;;2.17;2.17;;;23.60;67.00;;;;;;5084990;28;45049;-67
2023/06/11 03:37:03;;;;;;;2.30;2.30;;;23.60;67.20;;;;;;5086032;28;43792;-66
2023/06/11 03:39:31;;;;;;;2.20;2.20;;;23.60;67.00;;;;;;5085426;27;43572;-66
2023/06/11 03:41:59;;;;;;;2.10;2.10;;;23.60;66.90;;;;;;5085344;28;44840;-66
2023/06/11 03:44:31;;;;;;;2.20;2.20;;;23.70;66.60;;;;;;5084656;28;43805;-67
2023/06/11 03:47:00;;;;;;;2.20;2.20;;;23.80;66.30;;;;;;5085281;28;43381;-67
2023/06/11 03:49:28;;;;;;;2.37;2.37;;;23.90;66.90;;;;;;5089187;27;43586;-66
2023/06/11 03:51:56;;;;;;;2.23;2.23;;;23.90;66.10;;;;;;5084812;28;45789;-66
2023/06/11 03:54:24;;;;;;;2.23;2.20;;;23.80;66.10;;;;;;5084567;28;45064;-66
2023/06/11 03:56:53;;;;;;;2.10;2.00;;;23.80;66.60;;;;;;5085259;28;43412;-69
2023/06/11 03:59:21;;;;;;;2.23;2.23;;;23.70;66.50;;;;;;5086406;27;43500;-67
2023/06/11 04:01:50;;;;;;;2.30;2.30;;;23.70;66.50;;;;;;5084577;28;44961;-67
2023/06/11 04:04:18;;;;;;;2.00;2.00;;;23.70;66.70;;;;;;5085522;28;43549;-67
2023/06/11 04:06:47;;;;;;;2.23;2.23;;;23.60;66.80;;;;;;5084890;28;43433;-67
2023/06/11 04:09:16;;;;;;;2.17;2.17;;;23.60;66.90;;;;;;5079900;28;43531;-67
2023/06/11 04:11:45;;;;;;;2.50;2.50;;;23.60;66.90;;;;;;5088912;27;43854;-67
2023/06/11 04:14:14;;;;;;;2.20;2.20;;;23.60;66.80;;;;;;5084346;28;43802;-66
2023/06/11 04:16:43;;;;;;;2.20;2.20;;;23.60;66.90;;;;;;5084277;28;43481;-66
2023/06/11 04:19:12;;;;;;;2.33;2.27;;;23.60;67.20;;;;;;5085201;28;44109;-66
2023/06/11 04:21:42;;;;;;;2.03;2.03;;;23.60;67.20;;;;;;5084599;28;44938;-68
2023/06/11 04:24:10;;;;;;;2.23;2.23;;;23.70;67.00;;;;;;5081802;28;45027;-67
2023/06/11 04:26:40;;;;;;;2.10;2.10;;;23.80;66.50;;;;;;5084167;27;43450;-67
2023/06/11 04:29:09;;;;;;;2.27;2.27;;;23.90;66.20;;;;;;5086090;27;43403;-67
2023/06/11 04:31:37;;;;;;;2.10;2.10;;;23.90;66.10;;;;;;5084544;28;44780;-68
2023/06/11 04:34:06;;;;;;;2.20;2.20;;;23.90;66.00;;;;;;5084474;28;44983;-67
2023/06/11 04:36:38;;;;;;;2.50;2.50;;;23.80;66.80;;;;;;5085399;27;43478;-68
2023/06/11 04:39:08;;;;;;;2.60;2.60;;;23.80;66.50;;;;;;5085523;28;43465;-68
2023/06/11 04:41:37;;;;;;;2.23;2.23;;;23.70;66.50;;;;;;5087436;28;45649;-69
2023/06/11 04:44:06;;;;;;;2.10;2.10;;;23.70;66.40;;;;;;5088657;27;43442;-68
2023/06/11 04:46:35;;;;;;;2.33;2.33;;;23.70;66.70;;;;;;5089695;28;43791;-68
2023/06/11 04:49:06;;;;;;;2.20;2.20;;;23.70;67.00;;;;;;5088529;28;43867;-69
2023/06/11 04:51:40;;;;;;;2.23;2.23;;;23.60;66.90;;;;;;5089598;27;43610;-67
2023/06/11 04:54:11;;;;;;;2.27;2.27;;;23.60;66.80;;;;;;5087309;28;44967;-68
2023/06/11 04:56:44;;;;;;;2.30;2.30;;;23.60;66.90;;;;;;5088055;28;43481;-68
2023/06/11 04:59:13;;;;;;;2.20;2.20;;;23.60;67.20;;;;;;5087673;27;44123;-68
2023/06/11 05:01:46;;;;;;;2.50;2.50;;;23.60;67.10;;;;;;5087665;28;43902;-67
2023/06/11 05:04:16;;;;;;;2.20;2.20;;;23.70;67.00;;;;;;5083563;28;43437;-67
2023/06/11 05:06:46;;;;;;;2.20;2.20;;;23.80;66.70;;;;;;5089073;27;43524;-68
2023/06/11 05:09:19;;;;;;;2.10;2.10;;;23.90;66.30;;;;;;5086863;28;43524;-68
2023/06/11 05:11:50;;;;;;;2.20;2.20;;;23.90;66.10;;;;;;5083209;28;44920;-67
2023/06/11 05:14:18;;;;;;;2.13;2.13;;;23.90;66.00;;;;;;5087299;28;43401;-67
2023/06/11 05:16:50;;;;;;;2.20;2.20;;;23.90;66.20;;;;;;5087455;27;43512;-67
2023/06/11 05:19:19;;;;;;;2.20;2.20;;;23.70;66.50;;;;;;5087638;28;43489;-66
2023/06/11 05:21:48;;;;;;;2.40;2.40;;;23.80;66.50;;;;;;5086771;27;45989;-67
2023/06/11 05:24:20;;;;;;;2.67;2.60;;;23.70;66.40;;;;;;5086382;28;44728;-68
2023/06/11 05:26:55;;;;;;;2.13;2.13;;;23.70;66.60;;;;;;5084862;28;43548;-68
2023/06/11 05:29:23;;;;;;;2.30;2.30;;;23.70;66.90;;;;;;5098074;27;43976;-68
2023/06/11 05:31:52;;;;;;;2.40;2.40;;;23.60;66.90;;;;;;5087044;27;45984;-68
2023/06/11 05:34:22;;;;;;;2.00;2.00;;;23.70;66.80;;;;;;5103928;27;44660;-68
2023/06/11 05:36:51;;;;;;;2.40;2.40;;;23.80;66.60;;;;;;5086751;28;43531;-67
2023/06/11 05:39:21;;;;;;;2.30;2.30;;;23.70;66.30;;;;;;5086330;28;44265;-67
2023/06/11 05:41:49;;;;;;;2.40;2.40;;;23.70;66.20;;;;;;5087625;28;43683;-68
2023/06/11 05:44:19;;;;;;;2.37;2.37;;;23.70;66.50;;;;;;5087006;28;43403;-68
2023/06/11 05:46:47;;;;;;;2.30;2.30;;;23.70;66.40;;;;;;5088279;27;43433;-68
2023/06/11 05:49:16;;;;;;;2.20;2.20;;;23.70;66.20;;;;;;5087093;28;44022;-68
2023/06/11 05:51:45;;;;;;;2.13;2.10;;;23.70;66.20;;;;;;5087073;27;43917;-68
2023/06/11 05:54:13;;;;;;;2.30;2.30;;;23.60;66.60;;;;;;5084325;28;43948;-68
2023/06/11 05:56:44;;;;;;;2.40;2.40;;;23.60;66.60;;;;;;5085425;28;43451;-68
2023/06/11 05:59:13;;;;;;;2.40;2.40;;;23.60;66.40;;;;;;5084838;28;43545;-68
2023/06/11 06:01:44;;;;;;;2.13;2.13;;;23.60;66.50;;;;;;5087055;27;45695;-69
2023/06/11 06:04:15;;;;;;;2.33;2.33;;;23.60;66.80;;;;;;5082995;28;43900;-68
2023/06/11 06:06:44;;;;;;;2.57;2.57;;;23.50;66.90;;;;;;5086342;28;43537;-68
2023/06/11 06:09:14;;;;;;;2.20;2.20;;;23.50;66.50;;;;;;5085048;28;43823;-68
2023/06/11 06:11:45;;;;;;;2.70;2.70;;;23.50;66.50;;;;;;5086509;28;44193;-67
2023/06/11 06:14:13;;;;;;;2.57;2.57;;;23.50;66.80;;;;;;5086526;27;44461;-68
2023/06/11 06:16:41;;;;;;;2.10;2.10;;;23.50;67.00;;;;;;5085913;28;43512;-68
2023/06/11 06:19:14;;;;;;;2.60;2.50;;;23.50;67.00;;;;;;5091186;27;43525;-68
2023/06/11 06:21:42;;;;;;;2.43;2.43;;;23.60;66.90;;;;;;5087283;28;43684;-68
2023/06/11 06:24:11;;;;;;;2.30;2.30;;;23.70;66.60;;;;;;5083177;27;44518;-68
2023/06/11 06:26:40;;;;;;;2.60;2.60;;;23.90;66.20;;;;;;5083774;28;43960;-68
2023/06/11 06:29:13;;;;;;;2.40;2.40;;;23.90;65.90;;;;;;5079865;27;43427;-68
2023/06/11 06:31:41;;;;;;;2.60;2.60;;;23.90;65.60;;;;;;5084530;28;45635;-68
2023/06/11 06:34:09;;;;;;;2.40;2.40;;;23.80;65.50;;;;;;5079305;28;43880;-68
2023/06/11 06:36:38;;;;;;;2.70;2.60;;;23.70;66.10;;;;;;5084437;28;43344;-69
2023/06/11 06:39:08;;;;;;;2.37;2.33;;;23.70;66.20;;;;;;5086180;28;43945;-68
2023/06/11 06:41:37;;;;;;;2.60;2.60;;;23.70;65.90;;;;;;5085218;28;44023;-67
2023/06/11 06:44:11;;;;;;;2.60;2.60;;;23.70;66.10;;;;;;5084858;28;43502;-68
2023/06/11 06:46:39;;;;;;;2.70;2.70;;;23.60;66.60;;;;;;5086874;27;43423;-68
2023/06/11 06:49:07;;;;;;;2.33;2.33;;;23.60;66.60;;;;;;5086451;27;43474;-68
2023/06/11 06:51:37;;;;;;;2.83;2.73;;;23.60;66.50;;;;;;5087319;27;43610;-68
2023/06/11 06:54:06;;;;;;;2.50;2.50;;;23.60;66.30;;;;;;5085788;28;45094;-68
2023/06/11 06:56:36;;;;;;;2.60;2.60;;;23.50;66.70;;;;;;5085360;28;43371;-68
2023/06/11 06:59:05;;;;;;;2.50;2.50;;;23.50;67.00;;;;;;5085308;27;44015;-68
2023/06/11 07:01:36;;;;;;;2.60;2.53;;;23.60;67.00;;;;;;5085661;27;43910;-68
2023/06/11 07:04:05;;;;;;;2.53;2.53;;;23.70;66.70;;;;;;5082729;28;44440;-68
2023/06/11 07:06:33;;;;;;;2.70;2.70;;;23.80;66.30;;;;;;5081736;28;43547;-68
2023/06/11 07:09:03;;;;;;;2.60;2.60;;;23.80;66.10;;;;;;5085893;28;44007;-68
2023/06/11 07:11:31;;;;;;;2.67;2.67;;;23.80;65.90;;;;;;5085310;28;43590;-68
2023/06/11 07:14:00;;;;;;;2.60;2.60;;;23.80;65.60;;;;;;5080776;27;44676;-68
2023/06/11 07:16:28;;;;;;;2.73;2.73;;;23.70;66.20;;;;;;5085219;28;43458;-68
2023/06/11 07:19:02;;;;;;;2.87;2.87;;;23.70;66.60;;;;;;5087255;27;43471;-68
2023/06/11 07:21:30;;;;;;;2.70;2.70;;;23.70;66.30;;;;;;5085304;28;43870;-68
2023/06/11 07:23:58;;;;;;;2.70;2.70;;;23.60;66.10;;;;;;5084233;27;44701;-68
2023/06/11 07:26:27;;;;;;;2.60;2.60;;;23.60;66.70;;;;;;5085199;28;43967;-67
2023/06/11 07:28:56;;;;;;;2.60;2.50;;;23.50;66.80;;;;;;5085282;28;44229;-68
2023/06/11 07:31:24;;;;;;;2.67;2.67;;;23.60;66.80;;;;;;5085020;28;45004;-68
2023/06/11 07:33:53;;;;;;;2.30;2.30;;;23.50;66.50;;;;;;5084075;28;44662;-68
2023/06/11 07:36:22;;;;;;;2.70;2.70;;;23.50;66.70;;;;;;5087336;27;43425;-68
2023/06/11 07:38:50;;;;;;;2.57;2.57;;;23.50;67.10;;;;;;5085546;28;43510;-68
2023/06/11 07:41:19;;;;;;;2.53;2.53;;;23.50;67.10;;;;;;5080833;28;45751;-69
2023/06/11 07:43:47;;;;;;;2.47;2.37;;;23.60;66.90;;;;;;5078344;28;45013;-69
2023/06/11 07:46:16;;;;;;;2.63;2.63;;;23.70;66.50;;;;;;5097518;27;43956;-68
2023/06/11 07:48:44;;;;;;;2.43;2.43;;;23.80;66.10;;;;;;5085387;27;43609;-68
2023/06/11 07:51:14;;;;;;;2.43;2.43;;;23.80;66.00;;;;;;5085053;28;44955;-68
2023/06/11 07:53:49;;;;;;;2.80;2.80;;;23.80;66.00;;;;;;5083418;28;45738;-68
2023/06/11 07:56:17;;;;;;;2.93;2.83;;;23.70;66.10;;;;;;5083460;28;43415;-68
2023/06/11 07:58:45;;;;;;;2.40;2.40;;;23.70;66.60;;;;;;5086060;28;43462;-68
2023/06/11 08:01:13;;;;;;;2.47;2.47;;;23.70;66.50;;;;;;5086539;27;43586;-68
2023/06/11 08:03:41;;;;;;;2.70;2.70;;;23.60;66.40;;;;;;5082460;27;43523;-68
2023/06/11 08:06:10;;;;;;;2.40;2.40;;;23.60;66.50;;;;;;5083699;28;43545;-68
2023/06/11 08:08:38;;;;;;;2.40;2.40;;;23.60;66.90;;;;;;5086517;27;43426;-68
2023/06/11 08:11:07;;;;;;;2.50;2.50;;;23.60;67.00;;;;;;5086251;27;43602;-69
2023/06/11 08:13:35;;;;;;;2.37;2.37;;;23.60;67.00;;;;;;5090237;27;43444;-68
2023/06/11 08:16:03;;;;;;;2.60;2.60;;;23.50;66.90;;;;;;5090667;27;43475;-68
2023/06/11 08:18:31;;;;;;;2.50;2.50;;;23.50;67.00;;;;;;5088044;28;43493;-68
2023/06/11 08:21:00;;;;;;;2.37;2.37;;;23.50;67.20;;;;;;5088349;27;45944;-68
2023/06/11 08:23:28;;;;;;;2.50;2.50;;;23.50;67.10;;;;;;5085022;27;43384;-68
2023/06/11 08:25:58;;;;;;;2.60;2.60;;;23.60;66.90;;;;;;5089730;28;43437;-68
2023/06/11 08:28:29;;;;;;;2.60;2.50;;;23.70;66.50;;;;;;5089195;28;43433;-68
2023/06/11 08:31:00;;;;;;;2.70;2.70;;;23.80;66.10;;;;;;5089115;28;43771;-68
2023/06/11 08:33:28;;;;;;;2.57;2.57;;;23.80;66.10;;;;;;5089292;28;44094;-68
2023/06/11 08:35:56;;;;;;;2.80;2.80;;;23.80;66.20;;;;;;5087103;27;43435;-68
2023/06/11 08:38:27;;;;;;;3.33;2.40;;;23.70;66.50;;;;;;5090685;27;43500;-68
2023/06/11 08:40:55;;;;;;;2.60;2.60;;;23.70;66.70;;;;;;5086521;28;44106;-68
2023/06/11 08:43:24;;;;;;;2.47;2.47;;;23.60;66.40;;;;;;5089800;27;43333;-68
2023/06/11 08:45:53;;;;;;;2.70;2.60;;;23.60;66.40;;;;;;5090374;27;43376;-68
2023/06/11 08:48:21;;;;;;;2.47;2.40;;;23.60;66.70;;;;;;5089636;28;44130;-68
2023/06/11 08:50:50;;;;;;;2.70;2.60;;;23.50;67.00;;;;;;5089476;27;43602;-68
2023/06/11 08:53:18;;;;;;;2.77;2.60;;;23.50;66.90;;;;;;5089755;27;43459;-68
2023/06/11 08:55:46;;;;;;;2.60;2.60;;;23.50;66.80;;;;;;5089894;28;43401;-67
2023/06/11 08:58:14;;;;;;;2.63;2.63;;;23.50;66.80;;;;;;5091235;27;43352;-68
2023/06/11 09:00:42;;;;;;;2.33;2.33;;;23.50;67.20;;;;;;5089484;27;43981;-68
2023/06/11 09:03:17;;;;;;;2.63;2.63;;;23.40;67.20;;;;;;5082354;28;43435;-68
2023/06/11 09:05:46;;;;;;;2.83;2.70;;;23.50;67.20;;;;;;5090784;27;43454;-68
2023/06/11 09:08:14;;;;;;;2.80;2.60;;;23.50;67.00;;;;;;5084033;28;43446;-68
2023/06/11 09:10:48;;;;;;;2.50;2.50;;;23.40;66.80;;;;;;5088248;28;43932;-68
2023/06/11 09:13:17;;;;;;;2.50;2.40;;;23.40;67.40;;;;;;5084363;28;43482;-68
2023/06/11 09:15:48;;;;;;;2.80;2.70;;;23.50;67.40;;;;;;5089592;27;43398;-68
2023/06/11 09:18:22;;;;;;;2.60;2.60;;;23.50;67.10;;;;;;5089804;27;43426;-68
2023/06/11 09:20:51;;;;;;;2.67;2.57;;;23.70;66.80;;;;;;5089588;27;43602;-68
2023/06/11 09:23:27;;;;;;;2.53;2.53;;;23.80;66.40;;;;;;5088879;27;43386;-68
2023/06/11 09:25:58;;;;;;;2.70;2.60;;;23.80;66.10;;;;;;5089266;27;43374;-68
2023/06/11 09:28:30;;;;;;;2.50;2.50;;;23.80;66.00;;;;;;5088132;28;43486;-68
2023/06/11 09:30:58;;;;;;;2.27;2.27;;;23.70;66.20;;;;;;5089120;27;43893;-68
2023/06/11 09:33:31;;;;;;;2.67;2.67;;;23.70;66.50;;;;;;5087640;28;45446;-68
2023/06/11 09:36:00;;;;;;;2.37;2.37;;;23.70;66.40;;;;;;5089241;27;43389;-68
2023/06/11 09:38:28;;;;;;;2.67;2.57;;;23.60;66.40;;;;;;5089505;27;43426;-68
2023/06/11 09:40:56;;;;;;;2.57;2.57;;;23.60;66.50;;;;;;5082023;28;43837;-68
2023/06/11 09:43:25;;;;;;;2.67;2.67;;;23.50;66.90;;;;;;5089212;27;43486;-68
2023/06/11 09:45:54;;;;;;;2.70;2.70;;;23.50;66.90;;;;;;5098479;27;43438;-68
2023/06/11 09:48:22;;;;;;;2.50;2.50;;;23.50;67.70;;;;;;5088652;27;43468;-68
2023/06/11 09:50:52;;;;;;;2.67;2.67;;;23.50;66.90;;;;;;5088642;27;43769;-68
2023/06/11 09:53:21;;;;;;;2.70;2.60;;;23.50;67.90;;;;;;5087099;27;43671;-68
2023/06/11 09:55:50;;;;;;;2.70;2.70;;;23.50;67.20;;;;;;5083923;28;43480;-68
2023/06/11 09:58:36;;;;;;;2.57;2.57;;;23.50;67.10;;;;;;5082518;28;44055;-68
2023/06/11 10:01:04;;;;;;;2.60;2.60;;;23.60;66.70;;;;;;5081903;28;46192;-68
2023/06/11 10:03:35;;;;;;;2.50;2.50;;;23.70;66.20;;;;;;5090675;27;43415;-68
2023/06/11 10:06:06;;;;;;;2.70;2.60;;;23.70;66.30;;;;;;5085104;28;43548;-68
2023/06/11 10:08:35;;;;;;;2.70;2.60;;;23.70;66.20;;;;;;5089409;27;43553;-68
2023/06/11 10:11:03;;;;;;;2.23;2.23;;;23.70;66.40;;;;;;5088638;28;43841;-68
2023/06/11 10:13:32;;;;;;;2.60;2.60;;;23.60;66.80;;;;;;5088781;27;43405;-68
2023/06/11 10:16:01;;;;;;;2.47;2.47;;;23.60;66.90;;;;;;5089130;27;43408;-68
2023/06/11 10:18:30;;;;;;;2.33;2.33;;;23.60;66.80;;;;;;5088877;27;43498;-68
2023/06/11 10:20:59;;;;;;;2.53;2.53;;;23.50;66.70;;;;;;5087164;27;43996;-68
2023/06/11 10:23:37;;;;;;;2.50;2.50;;;23.50;67.20;;;;;;5079135;27;43549;-68
2023/06/11 10:26:05;;;;;;;2.53;2.53;;;23.50;67.30;;;;;;5088872;27;43496;-68
2023/06/11 10:28:37;;;;;;;2.50;2.50;;;23.50;67.00;;;;;;5087265;27;44055;-68
2023/06/11 10:31:05;;;;;;;2.80;2.80;;;23.50;67.00;;;;;;5088326;27;43616;-68
2023/06/11 10:33:38;;;;;;;2.50;2.50;;;23.50;67.50;;;;;;5086109;27;44372;-68
2023/06/11 10:36:08;;;;;;;2.60;2.60;;;23.50;67.50;;;;;;5088169;27;43412;-68
2023/06/11 10:38:39;;;;;;;2.53;2.53;;;23.50;67.40;;;;;;5087564;27;45192;-67
2023/06/11 10:41:06;;;;;;;2.40;2.40;;;23.60;66.90;;;;;;5087859;27;43695;-67
2023/06/11 10:43:36;;;;;;;2.50;2.50;;;23.60;66.90;;;;;;5086162;27;44422;-68
2023/06/11 10:46:06;;;;;;;2.50;2.50;;;23.60;66.80;;;;;;5088194;27;43538;-69
2023/06/11 10:48:34;;;;;;;2.60;2.60;;;23.60;67.20;;;;;;5089614;27;43497;-68
2023/06/11 10:51:05;;;;;;;2.47;2.33;;;23.60;67.20;;;;;;5086010;27;44048;-67
2023/06/11 10:53:36;;;;;;;2.67;2.67;;;23.60;67.20;;;;;;5086882;27;43536;-68
2023/06/11 10:56:06;;;;;;;2.37;2.30;;;23.60;67.10;;;;;;5088218;27;43489;-68
2023/06/11 10:58:34;;;;;;;2.40;2.40;;;23.50;67.40;;;;;;5087467;27;43987;-68
2023/06/11 11:01:04;;;;;;;2.80;2.80;;;23.60;67.60;;;;;;5085555;27;43850;-68
2023/06/11 11:03:32;;;;;;;2.60;2.60;;;23.60;67.50;;;;;;5088508;27;43454;-68
2023/06/11 11:06:00;;;;;;;2.33;2.33;;;23.50;67.30;;;;;;5087633;27;44094;-68
2023/06/11 11:08:29;;;;;;;2.40;2.40;;;23.50;67.20;;;;;;5086524;27;43602;-68
2023/06/11 11:10:59;;;;;;;2.50;2.50;;;23.50;67.90;;;;;;5087000;27;44095;-69
2023/06/11 11:13:29;;;;;;;2.60;2.60;;;23.50;67.80;;;;;;5088031;27;43871;-70
2023/06/11 11:15:58;;;;;;;2.57;2.57;;;23.60;67.50;;;;;;5086669;27;43726;-67
2023/06/11 11:18:26;;;;;;;2.40;2.40;;;23.70;67.40;;;;;;5087543;27;43365;-67
2023/06/11 11:20:54;;;;;;;2.43;2.43;;;23.80;66.90;;;;;;5085817;27;43641;-67
2023/06/11 11:23:24;;;;;;;2.50;2.50;;;23.80;66.80;;;;;;5088948;27;43408;-67
2023/06/11 11:25:52;;;;;;;2.40;2.40;;;23.80;66.80;;;;;;5085619;27;43592;-67
2023/06/11 11:28:20;;;;;;;2.50;2.40;;;23.70;67.40;;;;;;5091083;27;43526;-67
2023/06/11 11:30:50;;;;;;;2.20;2.20;;;23.70;67.20;;;;;;5086100;27;43619;-67
2023/06/11 11:33:18;;;;;;;2.60;2.40;;;23.70;67.30;;;;;;5086402;27;43488;-67
2023/06/11 11:35:47;;;;;;;2.40;2.40;;;23.70;67.20;;;;;;5087494;27;44360;-67
2023/06/11 11:38:15;;;;;;;2.40;2.40;;;23.70;67.10;;;;;;5087406;27;44024;-69
2023/06/11 11:40:43;;;;;;;2.27;2.27;;;23.60;67.50;;;;;;5086904;27;43611;-67
2023/06/11 11:43:12;;;;;;;2.37;2.37;;;23.60;67.70;;;;;;5087222;27;43488;-67
2023/06/11 11:45:40;;;;;;;2.23;2.23;;;23.60;67.50;;;;;;5088783;27;43425;-67
2023/06/11 11:48:09;;;;;;;2.57;2.57;;;23.60;67.30;;;;;;5090256;27;43423;-69
2023/06/11 11:50:38;;;;;;;2.73;2.67;;;23.50;67.40;;;;;;5086516;27;43945;-67
2023/06/11 11:53:08;;;;;;;2.53;2.43;;;23.50;67.80;;;;;;5089826;27;43565;-67
2023/06/11 11:55:38;;;;;;;2.40;2.40;;;23.50;67.70;;;;;;5091770;27;43506;-67
2023/06/11 11:58:26;;;;;;;2.70;2.70;;;23.60;67.50;;;;;;5089364;27;43445;-70
2023/06/11 12:00:56;;;;;;;2.57;2.50;;;23.70;67.10;;;;;;5084662;27;43598;-67
2023/06/11 12:03:25;;;;;;;2.23;2.23;;;23.80;67.00;;;;;;5087263;27;43494;-67
2023/06/11 12:05:58;;;;;;;2.33;2.33;;;23.80;66.90;;;;;;5087174;27;43501;-67
2023/06/11 12:08:26;;;;;;;2.50;2.50;;;23.80;66.90;;;;;;5088517;27;43425;-67
2023/06/11 12:10:56;;;;;;;2.90;2.70;;;23.70;67.20;;;;;;5089399;27;43657;-67
2023/06/11 12:13:24;;;;;;;3.00;2.80;;;23.70;67.30;;;;;;5089276;27;43521;-67
2023/06/11 12:15:52;;;;;;;2.70;2.60;;;23.70;67.30;;;;;;5087846;27;43456;-67
2023/06/11 12:18:20;;;;;;;2.90;2.80;;;23.70;67.20;;;;;;5092460;27;43442;-67
2023/06/11 12:20:53;;;;;;;2.70;2.67;;;23.60;67.20;;;;;;5090658;27;43681;-67
2023/06/11 12:23:21;;;;;;;2.70;2.60;;;23.60;67.70;;;;;;5107099;27;43524;-67
2023/06/11 12:25:49;;;;;;;2.80;2.70;;;23.60;67.60;;;;;;5109161;27;43432;-68
2023/06/11 12:28:18;;;;;;;2.67;2.50;;;23.60;67.50;;;;;;5110322;27;43724;-68
2023/06/11 12:30:46;;;;;;;4.47;2.70;;;23.60;67.40;;;;;;5109269;27;43574;-68
2023/06/11 12:33:15;;;;;;;2.80;2.70;;;23.50;67.70;;;;;;5110936;27;43441;-68
2023/06/11 12:35:43;;;;;;;2.60;2.50;;;23.50;67.70;;;;;;5111421;27;43478;-68
2023/06/11 12:38:14;;;;;;;2.53;2.43;;;23.50;67.50;;;;;;5112282;27;43417;-68
2023/06/11 12:40:42;;;;;;;2.80;2.70;;;23.50;67.50;;;;;;5119448;27;43959;-68
2023/06/11 12:43:10;;;;;;;2.60;2.50;;;23.50;67.60;;;;;;5107669;27;43534;-68
2023/06/11 12:45:38;;;;;;;4.67;2.60;;;23.50;67.90;;;;;;5111085;27;43385;-68
2023/06/11 12:48:06;;;;;;;2.80;2.60;;;23.60;67.90;;;;;;5110635;27;43388;-69
2023/06/11 12:50:38;;;;;;;2.70;2.60;;;23.60;67.60;;;;;;5103814;27;43627;-69
2023/06/11 12:53:06;;;;;;;2.97;2.80;;;23.70;67.30;;;;;;5111683;27;43467;-68
2023/06/11 12:55:35;;;;;;;2.60;2.50;;;23.80;67.00;;;;;;5102370;28;43423;-69
2023/06/11 12:58:05;;;;;;;2.80;2.60;;;23.90;66.90;;;;;;5105758;27;43423;-69
2023/06/11 13:00:32;;;;;;;2.53;2.43;;;23.80;66.90;;;;;;5109444;27;43676;-68